^^
Station Historical Data
Daily Summary for December 31, 2017 Units:  Both    English   Metric
« Previous Day
Next Day »
Daily Weekly Monthly Yearly Custom
  High: Low: Average:
Temperature: TemperatureF °F /  -17.8 °C 66.9 °F /  19.4 °C 79.4 °F /  26.3 °C
Dew Point: DewpointF °F /  -17.8 °C 19.9 °F /  -6.7 °C 34 °F /  1.1 °C
Humidity: Humidity% 8% 22%
Wind Speed: WindSpeedMPHmph /  0km/h - 2.5mph /  4km/h
Wind Gust: WindSpeedGustMPHmph /  0km/h - -
Wind- - SSW
Pressure: PressureIn in /  0 hPa 30.01 in /  1016.1 hPa -
Precipitation: 0.00 in /  0 mm    
Historical Graphs
 
 
Tabular Data for December 31, 2017
Time Temperature Dew Point Pressure Wind Wind Speed Wind Gust Humidity Rainfall Rate (Hourly) solar Conditions
TemperatureF °F /  -17.8 °C DewpointF °F /  -17.8 °C PressureInin /  0hPa Calm     Humidity% HourlyPrecipInin /  0mm SolarRadiationWatts/m^2 W/m2 Conditions
00:01 75.4 °F /  24.1 °C 41.7 °F /  5.4 °C 30.15in /  1020.9hPa Calm   5.0mph /  8km/h 30% 0.00in /  0mm 0.0 W/m2
00:06 75.0 °F /  23.9 °C 42.3 °F /  5.7 °C 30.15in /  1020.9hPa Calm   2.0mph /  3.2km/h 31% 0.00in /  0mm 0.0 W/m2
00:11 74.8 °F /  23.8 °C 42.3 °F /  5.7 °C 30.15in /  1020.9hPa Calm   2.0mph /  3.2km/h 31% 0.00in /  0mm 0.0 W/m2
00:13 74.7 °F /  23.7 °C 42.1 °F /  5.6 °C 30.15in /  1020.9hPa Calm     31% 0.00in /  0mm 0.0 W/m2
00:18 74.5 °F /  23.6 °C 41.9 °F /  5.5 °C 30.15in /  1020.9hPa SSE 2.9mph /  4.7km/h 6.0mph /  9.7km/h 31% 0.00in /  0mm 0.0 W/m2
00:23 74.1 °F /  23.4 °C 41.5 °F /  5.3 °C 30.15in /  1020.9hPa Calm   6.0mph /  9.7km/h 31% 0.00in /  0mm 0.0 W/m2
00:28 74.1 °F /  23.4 °C 42.4 °F /  5.8 °C 30.15in /  1020.9hPa Calm   1.0mph /  1.6km/h 32% 0.00in /  0mm 0.0 W/m2
00:31 73.9 °F /  23.3 °C 42.3 °F /  5.7 °C 30.15in /  1020.9hPa Calm   1.0mph /  1.6km/h 32% 0.00in /  0mm 0.0 W/m2
00:37 73.8 °F /  23.2 °C 42.1 °F /  5.6 °C 30.15in /  1020.9hPa Calm   5.0mph /  8km/h 32% 0.00in /  0mm 0.0 W/m2
00:42 73.8 °F /  23.2 °C 42.1 °F /  5.6 °C 30.15in /  1020.9hPa Calm   4.0mph /  6.4km/h 32% 0.00in /  0mm 0.0 W/m2
00:47 73.6 °F /  23.1 °C 42.6 °F /  5.9 °C 30.15in /  1020.9hPa SSE 2.0mph /  3.2km/h 5.0mph /  8km/h 33% 0.00in /  0mm 0.0 W/m2
00:52 73.6 °F /  23.1 °C 42.6 °F /  5.9 °C 30.14in /  1020.5hPa SSE 0.9mph /  1.4km/h 2.0mph /  3.2km/h 33% 0.00in /  0mm 0.0 W/m2
00:57 73.6 °F /  23.1 °C 42.6 °F /  5.9 °C 30.14in /  1020.5hPa SE 0.9mph /  1.4km/h 4.0mph /  6.4km/h 33% 0.00in /  0mm 0.0 W/m2
01:02 73.4 °F /  23 °C 42.6 °F /  5.9 °C 30.14in /  1020.5hPa Calm   5.0mph /  8km/h 33% 0.00in /  0mm 0.0 W/m2
01:07 73.2 °F /  22.9 °C 43.2 °F /  6.2 °C 30.14in /  1020.5hPa SW 2.9mph /  4.7km/h 3.0mph /  4.8km/h 34% 0.00in /  0mm 0.0 W/m2
01:12 73.0 °F /  22.8 °C 43.0 °F /  6.1 °C 30.14in /  1020.5hPa SW 0.9mph /  1.4km/h 4.0mph /  6.4km/h 34% 0.00in /  0mm 0.0 W/m2
01:17 72.9 °F /  22.7 °C 42.8 °F /  6 °C 30.13in /  1020.2hPa SSW 2.0mph /  3.2km/h 4.0mph /  6.4km/h 34% 0.00in /  0mm 0.0 W/m2
01:23 72.7 °F /  22.6 °C 43.5 °F /  6.4 °C 30.13in /  1020.2hPa Calm   1.0mph /  1.6km/h 35% 0.00in /  0mm 0.0 W/m2
01:28 72.3 °F /  22.4 °C 43.2 °F /  6.2 °C 30.13in /  1020.2hPa SSW 0.9mph /  1.4km/h 2.0mph /  3.2km/h 35% 0.00in /  0mm 0.0 W/m2
01:32 72.1 °F /  22.3 °C 43.0 °F /  6.1 °C 30.13in /  1020.2hPa SSE 0.9mph /  1.4km/h 5.0mph /  8km/h 35% 0.00in /  0mm 0.0 W/m2
01:37 72.0 °F /  22.2 °C 43.5 °F /  6.4 °C 30.13in /  1020.2hPa SSW 2.0mph /  3.2km/h 5.0mph /  8km/h 36% 0.00in /  0mm 0.0 W/m2
01:42 71.6 °F /  22 °C 43.2 °F /  6.2 °C 30.13in /  1020.2hPa Calm   4.0mph /  6.4km/h 36% 0.00in /  0mm 0.0 W/m2
01:47 71.4 °F /  21.9 °C 43.2 °F /  6.2 °C 30.12in /  1019.9hPa SSW 0.9mph /  1.4km/h 4.0mph /  6.4km/h 36% 0.00in /  0mm 0.0 W/m2
01:52 71.2 °F /  21.8 °C 43.7 °F /  6.5 °C 30.12in /  1019.9hPa Calm   5.0mph /  8km/h 37% 0.00in /  0mm 0.0 W/m2
01:53 71.2 °F /  21.8 °C 43.0 °F /  6.1 °C 30.12in /  1019.9hPa South 2.0mph /  3.2km/h 2.0mph /  3.2km/h 36% 0.00in /  0mm 0.0 W/m2
01:58 71.1 °F /  21.7 °C 42.8 °F /  6 °C 30.12in /  1019.9hPa SSW 2.9mph /  4.7km/h 6.0mph /  9.7km/h 36% 0.00in /  0mm 0.0 W/m2
02:03 71.1 °F /  21.7 °C 43.5 °F /  6.4 °C 30.12in /  1019.9hPa SW 6.0mph /  9.7km/h 6.0mph /  9.7km/h 37% 0.00in /  0mm 0.0 W/m2
02:09 70.9 °F /  21.6 °C 43.3 °F /  6.3 °C 30.11in /  1019.5hPa Calm   4.0mph /  6.4km/h 37% 0.00in /  0mm 0.0 W/m2
02:14 70.5 °F /  21.4 °C 43.0 °F /  6.1 °C 30.11in /  1019.5hPa Calm   4.0mph /  6.4km/h 37% 0.00in /  0mm 0.0 W/m2
02:19 70.5 °F /  21.4 °C 42.3 °F /  5.7 °C 30.11in /  1019.5hPa SSE 0.9mph /  1.4km/h 3.0mph /  4.8km/h 36% 0.00in /  0mm 0.0 W/m2
02:24 70.5 °F /  21.4 °C 41.5 °F /  5.3 °C 30.11in /  1019.5hPa Calm   9.0mph /  14.5km/h 35% 0.00in /  0mm 0.0 W/m2
02:29 70.5 °F /  21.4 °C 41.5 °F /  5.3 °C 30.11in /  1019.5hPa SSW 2.0mph /  3.2km/h 4.0mph /  6.4km/h 35% 0.00in /  0mm 0.0 W/m2
02:34 70.9 °F /  21.6 °C 41.9 °F /  5.5 °C 30.11in /  1019.5hPa SE 0.9mph /  1.4km/h 5.0mph /  8km/h 35% 0.00in /  0mm 0.0 W/m2
02:39 70.9 °F /  21.6 °C 41.2 °F /  5.1 °C 30.11in /  1019.5hPa South 4.0mph /  6.4km/h 10.0mph /  16.1km/h 34% 0.00in /  0mm 0.0 W/m2
02:45 71.2 °F /  21.8 °C 39.9 °F /  4.4 °C 30.11in /  1019.5hPa SE 2.0mph /  3.2km/h 19.0mph /  30.6km/h 32% 0.00in /  0mm 0.0 W/m2
02:51 72.0 °F /  22.2 °C 40.5 °F /  4.7 °C 30.11in /  1019.5hPa SSE 4.0mph /  6.4km/h 8.0mph /  12.9km/h 32% 0.00in /  0mm 0.0 W/m2
02:56 72.1 °F /  22.3 °C 40.6 °F /  4.8 °C 30.10in /  1019.2hPa SSW 4.0mph /  6.4km/h 11.0mph /  17.7km/h 32% 0.00in /  0mm 0.0 W/m2
03:01 72.1 °F /  22.3 °C 40.6 °F /  4.8 °C 30.10in /  1019.2hPa SSE 2.9mph /  4.7km/h 4.0mph /  6.4km/h 32% 0.00in /  0mm 0.0 W/m2
03:06 72.0 °F /  22.2 °C 40.5 °F /  4.7 °C 30.10in /  1019.2hPa Calm   3.0mph /  4.8km/h 32% 0.00in /  0mm 0.0 W/m2
03:11 72.0 °F /  22.2 °C 41.4 °F /  5.2 °C 30.10in /  1019.2hPa SW 4.0mph /  6.4km/h 11.0mph /  17.7km/h 33% 0.00in /  0mm 0.0 W/m2
03:16 71.8 °F /  22.1 °C 41.2 °F /  5.1 °C 30.10in /  1019.2hPa Calm   4.0mph /  6.4km/h 33% 0.00in /  0mm 0.0 W/m2
03:21 71.8 °F /  22.1 °C 41.2 °F /  5.1 °C 30.10in /  1019.2hPa Calm   9.0mph /  14.5km/h 33% 0.00in /  0mm 0.0 W/m2
03:26 71.4 °F /  21.9 °C 41.5 °F /  5.3 °C 30.10in /  1019.2hPa South 0.9mph /  1.4km/h 5.0mph /  8km/h 34% 0.00in /  0mm 0.0 W/m2
03:31 71.2 °F /  21.8 °C 41.4 °F /  5.2 °C 30.10in /  1019.2hPa SW 2.0mph /  3.2km/h 7.0mph /  11.3km/h 34% 0.00in /  0mm 0.0 W/m2
03:32 71.2 °F /  21.8 °C 41.4 °F /  5.2 °C 30.10in /  1019.2hPa SE 4.0mph /  6.4km/h 7.0mph /  11.3km/h 34% 0.00in /  0mm 0.0 W/m2
03:38 71.1 °F /  21.7 °C 41.4 °F /  5.2 °C 30.10in /  1019.2hPa SW 0.9mph /  1.4km/h 5.0mph /  8km/h 34% 0.00in /  0mm 0.0 W/m2
03:39 71.1 °F /  21.7 °C 41.4 °F /  5.2 °C 30.10in /  1019.2hPa Calm   5.0mph /  8km/h 34% 0.00in /  0mm 0.0 W/m2
03:44 71.1 °F /  21.7 °C 41.4 °F /  5.2 °C 30.10in /  1019.2hPa SW 2.0mph /  3.2km/h 7.0mph /  11.3km/h 34% 0.00in /  0mm 0.0 W/m2
03:49 71.1 °F /  21.7 °C 41.4 °F /  5.2 °C 30.10in /  1019.2hPa SSW 4.0mph /  6.4km/h 5.0mph /  8km/h 34% 0.00in /  0mm 0.0 W/m2
03:54 70.9 °F /  21.6 °C 41.2 °F /  5.1 °C 30.10in /  1019.2hPa Calm   3.0mph /  4.8km/h 34% 0.00in /  0mm 0.0 W/m2
03:59 70.5 °F /  21.4 °C 41.5 °F /  5.3 °C 30.10in /  1019.2hPa SW 2.0mph /  3.2km/h 5.0mph /  8km/h 35% 0.00in /  0mm 0.0 W/m2
04:04 70.3 °F /  21.3 °C 41.4 °F /  5.2 °C 30.10in /  1019.2hPa WSW 0.9mph /  1.4km/h 2.0mph /  3.2km/h 35% 0.00in /  0mm 0.0 W/m2
04:06 70.3 °F /  21.3 °C 41.4 °F /  5.2 °C 30.10in /  1019.2hPa WSW 4.0mph /  6.4km/h 5.0mph /  8km/h 35% 0.00in /  0mm 0.0 W/m2
04:11 70.2 °F /  21.2 °C 41.2 °F /  5.1 °C 30.10in /  1019.2hPa West 2.0mph /  3.2km/h 6.0mph /  9.7km/h 35% 0.00in /  0mm 0.0 W/m2
04:16 70.2 °F /  21.2 °C 41.2 °F /  5.1 °C 30.10in /  1019.2hPa WSW 4.9mph /  7.9km/h 7.0mph /  11.3km/h 35% 0.00in /  0mm 0.0 W/m2
04:21 70.2 °F /  21.2 °C 41.9 °F /  5.5 °C 30.10in /  1019.2hPa WSW 0.9mph /  1.4km/h 8.0mph /  12.9km/h 36% 0.00in /  0mm 0.0 W/m2
04:26 70.0 °F /  21.1 °C 41.7 °F /  5.4 °C 30.10in /  1019.2hPa Calm   1.0mph /  1.6km/h 36% 0.00in /  0mm 0.0 W/m2
04:31 69.6 °F /  20.9 °C 42.3 °F /  5.7 °C 30.10in /  1019.2hPa West 2.9mph /  4.7km/h 7.0mph /  11.3km/h 37% 0.00in /  0mm 0.0 W/m2
04:37 69.3 °F /  20.7 °C 41.9 °F /  5.5 °C 30.10in /  1019.2hPa Calm   3.0mph /  4.8km/h 37% 0.00in /  0mm 0.0 W/m2
04:42 69.1 °F /  20.6 °C 41.7 °F /  5.4 °C 30.10in /  1019.2hPa WSW 4.9mph /  7.9km/h 6.0mph /  9.7km/h 37% 0.00in /  0mm 0.0 W/m2
04:52 68.9 °F /  20.5 °C 41.5 °F /  5.3 °C 30.10in /  1019.2hPa Calm   5.0mph /  8km/h 37% 0.00in /  0mm 0.0 W/m2
04:57 68.9 °F /  20.5 °C 41.5 °F /  5.3 °C 30.10in /  1019.2hPa WSW 2.0mph /  3.2km/h 5.0mph /  8km/h 37% 0.00in /  0mm 0.0 W/m2
05:02 68.7 °F /  20.4 °C 41.4 °F /  5.2 °C 30.10in /  1019.2hPa Calm   2.0mph /  3.2km/h 37% 0.00in /  0mm 0.0 W/m2
05:08 68.7 °F /  20.4 °C 41.4 °F /  5.2 °C 30.10in /  1019.2hPa Calm   1.0mph /  1.6km/h 37% 0.00in /  0mm 0.0 W/m2
05:14 68.5 °F /  20.3 °C 41.2 °F /  5.1 °C 30.10in /  1019.2hPa SW 4.9mph /  7.9km/h 5.0mph /  8km/h 37% 0.00in /  0mm 0.0 W/m2
05:22 68.7 °F /  20.4 °C 41.4 °F /  5.2 °C 30.10in /  1019.2hPa Calm   3.0mph /  4.8km/h 37% 0.00in /  0mm 0.0 W/m2
05:25 68.7 °F /  20.4 °C 41.4 °F /  5.2 °C 30.10in /  1019.2hPa Calm   5.0mph /  8km/h 37% 0.00in /  0mm 0.0 W/m2
05:31 68.7 °F /  20.4 °C 41.4 °F /  5.2 °C 30.10in /  1019.2hPa SSW 0.9mph /  1.4km/h 2.0mph /  3.2km/h 37% 0.00in /  0mm 0.0 W/m2
05:36 68.5 °F /  20.3 °C 41.2 °F /  5.1 °C 30.10in /  1019.2hPa Calm   3.0mph /  4.8km/h 37% 0.00in /  0mm 0.0 W/m2
05:42 68.4 °F /  20.2 °C 41.0 °F /  5 °C 30.10in /  1019.2hPa Calm   5.0mph /  8km/h 37% 0.00in /  0mm 0.0 W/m2
05:43 68.4 °F /  20.2 °C 40.3 °F /  4.6 °C 30.10in /  1019.2hPa SSW 2.0mph /  3.2km/h 5.0mph /  8km/h 36% 0.00in /  0mm 0.0 W/m2
05:46 68.2 °F /  20.1 °C 41.0 °F /  5 °C 30.10in /  1019.2hPa SW 4.0mph /  6.4km/h 5.0mph /  8km/h 37% 0.00in /  0mm 0.0 W/m2
05:51 68.2 °F /  20.1 °C 41.0 °F /  5 °C 30.10in /  1019.2hPa Calm   4.0mph /  6.4km/h 37% 0.00in /  0mm 0.0 W/m2
05:56 68.0 °F /  20 °C 41.4 °F /  5.2 °C 30.10in /  1019.2hPa Calm   4.0mph /  6.4km/h 38% 0.00in /  0mm 0.0 W/m2
06:01 67.8 °F /  19.9 °C 40.6 °F /  4.8 °C 30.10in /  1019.2hPa SW 2.0mph /  3.2km/h 4.0mph /  6.4km/h 37% 0.00in /  0mm 0.0 W/m2
06:06 67.6 °F /  19.8 °C 41.2 °F /  5.1 °C 30.10in /  1019.2hPa Calm   3.0mph /  4.8km/h 38% 0.00in /  0mm 0.0 W/m2
06:11 67.6 °F /  19.8 °C 41.2 °F /  5.1 °C 30.10in /  1019.2hPa Calm   2.0mph /  3.2km/h 38% 0.00in /  0mm 0.0 W/m2
06:16 67.5 °F /  19.7 °C 41.0 °F /  5 °C 30.10in /  1019.2hPa SSW 0.9mph /  1.4km/h 4.0mph /  6.4km/h 38% 0.00in /  0mm 5.0 W/m2
06:22 67.3 °F /  19.6 °C 40.8 °F /  4.9 °C 30.10in /  1019.2hPa Calm   2.0mph /  3.2km/h 38% 0.00in /  0mm 7.0 W/m2
06:27 67.3 °F /  19.6 °C 40.8 °F /  4.9 °C 30.10in /  1019.2hPa South 0.9mph /  1.4km/h 2.0mph /  3.2km/h 38% 0.00in /  0mm 9.0 W/m2
06:32 66.9 °F /  19.4 °C 40.5 °F /  4.7 °C 30.10in /  1019.2hPa South 0.9mph /  1.4km/h 3.0mph /  4.8km/h 38% 0.00in /  0mm 11.0 W/m2
06:37 66.9 °F /  19.4 °C 39.7 °F /  4.3 °C 30.10in /  1019.2hPa SSW 0.9mph /  1.4km/h 6.0mph /  9.7km/h 37% 0.00in /  0mm 12.0 W/m2
06:42 67.1 °F /  19.5 °C 39.2 °F /  4 °C 30.10in /  1019.2hPa ESE 2.0mph /  3.2km/h 5.0mph /  8km/h 36% 0.00in /  0mm 14.0 W/m2
06:47 67.5 °F /  19.7 °C 39.6 °F /  4.2 °C 30.10in /  1019.2hPa South 2.0mph /  3.2km/h 7.0mph /  11.3km/h 36% 0.00in /  0mm 16.0 W/m2
06:48 67.5 °F /  19.7 °C 38.8 °F /  3.8 °C 30.10in /  1019.2hPa SW 2.0mph /  3.2km/h 5.0mph /  8km/h 35% 0.00in /  0mm 16.0 W/m2
06:53 68.0 °F /  20 °C 38.7 °F /  3.7 °C 30.11in /  1019.5hPa SE 0.9mph /  1.4km/h 5.0mph /  8km/h 34% 0.00in /  0mm 16.0 W/m2
06:55 68.2 °F /  20.1 °C 38.7 °F /  3.7 °C 30.11in /  1019.5hPa SSE 2.9mph /  4.7km/h 5.0mph /  8km/h 34% 0.00in /  0mm 18.0 W/m2
07:01 68.5 °F /  20.3 °C 38.3 °F /  3.5 °C 30.11in /  1019.5hPa Calm   2.0mph /  3.2km/h 33% 0.00in /  0mm 18.0 W/m2
07:06 69.1 °F /  20.6 °C 37.9 °F /  3.3 °C 30.11in /  1019.5hPa Calm   4.0mph /  6.4km/h 32% 0.00in /  0mm 19.0 W/m2
07:12 69.3 °F /  20.7 °C 38.8 °F /  3.8 °C 30.11in /  1019.5hPa SW 2.0mph /  3.2km/h 3.0mph /  4.8km/h 33% 0.00in /  0mm 21.0 W/m2
07:17 69.4 °F /  20.8 °C 39.0 °F /  3.9 °C 30.12in /  1019.9hPa Calm   2.0mph /  3.2km/h 33% 0.00in /  0mm 21.0 W/m2
07:22 69.6 °F /  20.9 °C 37.6 °F /  3.1 °C 30.12in /  1019.9hPa Calm   3.0mph /  4.8km/h 31% 0.00in /  0mm 23.0 W/m2
07:28 70.0 °F /  21.1 °C 38.8 °F /  3.8 °C 30.12in /  1019.9hPa Calm   2.0mph /  3.2km/h 32% 0.00in /  0mm 23.0 W/m2
07:33 70.2 °F /  21.2 °C 36.5 °F /  2.5 °C 30.12in /  1019.9hPa SE 0.9mph /  1.4km/h 5.0mph /  8km/h 29% 0.00in /  0mm 25.0 W/m2
07:37 70.7 °F /  21.5 °C 36.0 °F /  2.2 °C 30.12in /  1019.9hPa ESE 6.0mph /  9.7km/h 7.0mph /  11.3km/h 28% 0.00in /  0mm 25.0 W/m2
07:42 71.4 °F /  21.9 °C 36.7 °F /  2.6 °C 30.12in /  1019.9hPa SSE 2.9mph /  4.7km/h 4.0mph /  6.4km/h 28% 0.00in /  0mm 26.0 W/m2
07:47 72.0 °F /  22.2 °C 36.1 °F /  2.3 °C 30.12in /  1019.9hPa ESE 4.0mph /  6.4km/h 4.0mph /  6.4km/h 27% 0.00in /  0mm 163.0 W/m2
07:53 72.7 °F /  22.6 °C 36.9 °F /  2.7 °C 30.13in /  1020.2hPa SSE 2.9mph /  4.7km/h 5.0mph /  8km/h 27% 0.00in /  0mm 355.0 W/m2
07:58 73.2 °F /  22.9 °C 37.2 °F /  2.9 °C 30.13in /  1020.2hPa SSE 4.9mph /  7.9km/h 7.0mph /  11.3km/h 27% 0.00in /  0mm 394.0 W/m2
07:59 73.2 °F /  22.9 °C 36.3 °F /  2.4 °C 30.13in /  1020.2hPa SE 2.0mph /  3.2km/h 6.0mph /  9.7km/h 26% 0.00in /  0mm 399.0 W/m2
08:04 73.9 °F /  23.3 °C 34.9 °F /  1.6 °C 30.13in /  1020.2hPa SSE 2.0mph /  3.2km/h 5.0mph /  8km/h 24% 0.00in /  0mm 420.0 W/m2
08:09 74.7 °F /  23.7 °C 35.4 °F /  1.9 °C 30.13in /  1020.2hPa SE 2.9mph /  4.7km/h 6.0mph /  9.7km/h 24% 0.00in /  0mm 441.0 W/m2
08:14 75.2 °F /  24 °C 34.9 °F /  1.6 °C 30.13in /  1020.2hPa SSE 2.0mph /  3.2km/h 6.0mph /  9.7km/h 23% 0.00in /  0mm 461.0 W/m2
08:19 75.6 °F /  24.2 °C 35.2 °F /  1.8 °C 30.13in /  1020.2hPa SSE 4.0mph /  6.4km/h 12.0mph /  19.3km/h 23% 0.00in /  0mm 482.0 W/m2
08:24 76.1 °F /  24.5 °C 35.6 °F /  2 °C 30.13in /  1020.2hPa East 2.0mph /  3.2km/h 7.0mph /  11.3km/h 23% 0.00in /  0mm 499.0 W/m2
08:29 76.5 °F /  24.7 °C 34.9 °F /  1.6 °C 30.13in /  1020.2hPa SSE 2.9mph /  4.7km/h 7.0mph /  11.3km/h 22% 0.00in /  0mm 519.0 W/m2
08:31 76.6 °F /  24.8 °C 36.1 °F /  2.3 °C 30.14in /  1020.5hPa SE 2.9mph /  4.7km/h 7.0mph /  11.3km/h 23% 0.00in /  0mm 527.0 W/m2
08:36 77.2 °F /  25.1 °C 36.5 °F /  2.5 °C 30.13in /  1020.2hPa WSW 0.9mph /  1.4km/h 2.0mph /  3.2km/h 23% 0.00in /  0mm 543.0 W/m2
08:38 77.2 °F /  25.1 °C 36.5 °F /  2.5 °C 30.13in /  1020.2hPa South 2.0mph /  3.2km/h 5.0mph /  8km/h 23% 0.00in /  0mm 554.0 W/m2
08:44 77.4 °F /  25.2 °C 35.6 °F /  2 °C 30.13in /  1020.2hPa South 6.0mph /  9.7km/h 6.0mph /  9.7km/h 22% 0.00in /  0mm 577.0 W/m2
08:46 77.4 °F /  25.2 °C 35.6 °F /  2 °C 30.13in /  1020.2hPa SSE 4.0mph /  6.4km/h 7.0mph /  11.3km/h 22% 0.00in /  0mm 584.0 W/m2
08:50 77.5 °F /  25.3 °C 35.8 °F /  2.1 °C 30.13in /  1020.2hPa SSW 2.0mph /  3.2km/h 6.0mph /  9.7km/h 22% 0.00in /  0mm 599.0 W/m2
08:55 77.9 °F /  25.5 °C 34.9 °F /  1.6 °C 30.13in /  1020.2hPa SSW 6.0mph /  9.7km/h 6.0mph /  9.7km/h 21% 0.00in /  0mm 621.0 W/m2
09:00 78.1 °F /  25.6 °C 33.8 °F /  1 °C 30.14in /  1020.5hPa SSW 2.0mph /  3.2km/h 5.0mph /  8km/h 20% 0.00in /  0mm 635.0 W/m2
09:05 78.6 °F /  25.9 °C 32.9 °F /  0.5 °C 30.14in /  1020.5hPa South 2.0mph /  3.2km/h 5.0mph /  8km/h 19% 0.00in /  0mm 652.0 W/m2
09:10 79.2 °F /  26.2 °C 32.0 °F /  0 °C 30.13in /  1020.2hPa South 2.9mph /  4.7km/h 6.0mph /  9.7km/h 18% 0.00in /  0mm 671.0 W/m2
09:13 79.5 °F /  26.4 °C 32.4 °F /  0.2 °C 30.14in /  1020.5hPa South 0.9mph /  1.4km/h 7.0mph /  11.3km/h 18% 0.00in /  0mm 684.0 W/m2
09:18 79.9 °F /  26.6 °C 31.1 °F /  -0.5 °C 30.13in /  1020.2hPa SE 0.9mph /  1.4km/h 6.0mph /  9.7km/h 17% 0.00in /  0mm 700.0 W/m2
09:23 80.2 °F /  26.8 °C 35.6 °F /  2 °C 30.14in /  1020.5hPa East 2.0mph /  3.2km/h 4.0mph /  6.4km/h 20% 0.00in /  0mm 719.0 W/m2
09:28 81.0 °F /  27.2 °C 33.4 °F /  0.8 °C 30.13in /  1020.2hPa ESE 2.0mph /  3.2km/h 6.0mph /  9.7km/h 18% 0.00in /  0mm 731.0 W/m2
09:31 81.1 °F /  27.3 °C 32.2 °F /  0.1 °C 30.13in /  1020.2hPa SE 2.0mph /  3.2km/h 4.0mph /  6.4km/h 17% 0.00in /  0mm 744.0 W/m2
09:36 81.7 °F /  27.6 °C 34.0 °F /  1.1 °C 30.13in /  1020.2hPa SE 2.0mph /  3.2km/h 6.0mph /  9.7km/h 18% 0.00in /  0mm 759.0 W/m2
09:41 81.9 °F /  27.7 °C 32.7 °F /  0.4 °C 30.13in /  1020.2hPa East 0.9mph /  1.4km/h 1.0mph /  1.6km/h 17% 0.00in /  0mm 775.0 W/m2
09:46 82.0 °F /  27.8 °C 34.3 °F /  1.3 °C 30.13in /  1020.2hPa SE 4.9mph /  7.9km/h 5.0mph /  8km/h 18% 0.00in /  0mm 789.0 W/m2
09:51 82.2 °F /  27.9 °C 34.5 °F /  1.4 °C 30.12in /  1019.9hPa ESE 0.9mph /  1.4km/h 5.0mph /  8km/h 18% 0.00in /  0mm 803.0 W/m2
09:56 82.8 °F /  28.2 °C 34.9 °F /  1.6 °C 30.12in /  1019.9hPa SSE 2.9mph /  4.7km/h 6.0mph /  9.7km/h 18% 0.00in /  0mm 821.0 W/m2
10:01 82.8 °F /  28.2 °C 33.4 °F /  0.8 °C 30.12in /  1019.9hPa Calm   3.0mph /  4.8km/h 17% 0.00in /  0mm 833.0 W/m2
10:06 82.8 °F /  28.2 °C 34.9 °F /  1.6 °C 30.12in /  1019.9hPa SE 0.9mph /  1.4km/h 5.0mph /  8km/h 18% 0.00in /  0mm 849.0 W/m2
10:12 83.1 °F /  28.4 °C 33.8 °F /  1 °C 30.12in /  1019.9hPa SE 6.0mph /  9.7km/h 6.0mph /  9.7km/h 17% 0.00in /  0mm 867.0 W/m2
10:17 83.7 °F /  28.7 °C 32.7 °F /  0.4 °C 30.12in /  1019.9hPa Calm   4.0mph /  6.4km/h 16% 0.00in /  0mm 879.0 W/m2
10:23 84.0 °F /  28.9 °C 34.5 °F /  1.4 °C 30.12in /  1019.9hPa SSW 2.9mph /  4.7km/h 5.0mph /  8km/h 17% 0.00in /  0mm 895.0 W/m2
10:29 84.4 °F /  29.1 °C 30.0 °F /  -1.1 °C 30.12in /  1019.9hPa SSW 2.0mph /  3.2km/h 4.0mph /  6.4km/h 14% 0.00in /  0mm 911.0 W/m2
10:34 84.4 °F /  29.1 °C 30.0 °F /  -1.1 °C 30.12in /  1019.9hPa Calm   3.0mph /  4.8km/h 14% 0.00in /  0mm 925.0 W/m2
10:36 84.6 °F /  29.2 °C 30.2 °F /  -1 °C 30.12in /  1019.9hPa Calm   7.0mph /  11.3km/h 14% 0.00in /  0mm 928.0 W/m2
10:41 84.7 °F /  29.3 °C 30.2 °F /  -1 °C 30.12in /  1019.9hPa SSE 4.9mph /  7.9km/h 9.0mph /  14.5km/h 14% 0.00in /  0mm 944.0 W/m2
10:47 85.3 °F /  29.6 °C 30.7 °F /  -0.7 °C 30.12in /  1019.9hPa South 4.0mph /  6.4km/h 8.0mph /  12.9km/h 14% 0.00in /  0mm 954.0 W/m2
10:53 85.1 °F /  29.5 °C 28.8 °F /  -1.8 °C 30.12in /  1019.9hPa SW 0.9mph /  1.4km/h 5.0mph /  8km/h 13% 0.00in /  0mm 969.0 W/m2
10:58 84.9 °F /  29.4 °C 30.4 °F /  -0.9 °C 30.12in /  1019.9hPa SSW 2.9mph /  4.7km/h 5.0mph /  8km/h 14% 0.00in /  0mm 983.0 W/m2
11:03 85.1 °F /  29.5 °C 28.8 °F /  -1.8 °C 30.12in /  1019.9hPa Calm   5.0mph /  8km/h 13% 0.00in /  0mm 988.0 W/m2
11:08 85.5 °F /  29.7 °C 30.9 °F /  -0.6 °C 30.12in /  1019.9hPa SE 2.9mph /  4.7km/h 7.0mph /  11.3km/h 14% 0.00in /  0mm 997.0 W/m2
11:09 85.6 °F /  29.8 °C 30.9 °F /  -0.6 °C 30.12in /  1019.9hPa SE 2.0mph /  3.2km/h 8.0mph /  12.9km/h 14% 0.00in /  0mm 998.0 W/m2
11:14 86.5 °F /  30.3 °C 31.6 °F /  -0.2 °C 30.11in /  1019.5hPa SE 2.9mph /  4.7km/h 7.0mph /  11.3km/h 14% 0.00in /  0mm 1009.0 W/m2
11:15 86.5 °F /  30.3 °C 29.8 °F /  -1.2 °C 30.12in /  1019.9hPa SSE 2.9mph /  4.7km/h 6.0mph /  9.7km/h 13% 0.00in /  0mm 1007.0 W/m2
11:20 87.1 °F /  30.6 °C 30.2 °F /  -1 °C 30.11in /  1019.5hPa South 4.9mph /  7.9km/h 9.0mph /  14.5km/h 13% 0.00in /  0mm 1016.0 W/m2
11:24 87.3 °F /  30.7 °C 30.4 °F /  -0.9 °C 30.11in /  1019.5hPa South 8.9mph /  14.3km/h 9.0mph /  14.5km/h 13% 0.00in /  0mm 1020.0 W/m2
11:29 87.6 °F /  30.9 °C 28.8 °F /  -1.8 °C 30.11in /  1019.5hPa NE 0.9mph /  1.4km/h 5.0mph /  8km/h 12% 0.00in /  0mm 1030.0 W/m2
11:35 88.0 °F /  31.1 °C 30.9 °F /  -0.6 °C 30.11in /  1019.5hPa South 4.9mph /  7.9km/h 8.0mph /  12.9km/h 13% 0.00in /  0mm 1037.0 W/m2
11:40 88.0 °F /  31.1 °C 32.9 °F /  0.5 °C 30.11in /  1019.5hPa ESE 2.0mph /  3.2km/h 2.0mph /  3.2km/h 14% 0.00in /  0mm 1042.0 W/m2
11:42 88.0 °F /  31.1 °C 30.9 °F /  -0.6 °C 30.11in /  1019.5hPa SE 2.9mph /  4.7km/h 10.0mph /  16.1km/h 13% 0.00in /  0mm 1046.0 W/m2
11:48 88.3 °F /  31.3 °C 29.3 °F /  -1.5 °C 30.11in /  1019.5hPa SE 0.9mph /  1.4km/h 7.0mph /  11.3km/h 12% 0.00in /  0mm 1051.0 W/m2
11:50 88.5 °F /  31.4 °C 29.5 °F /  -1.4 °C 30.11in /  1019.5hPa East 2.0mph /  3.2km/h 11.0mph /  17.7km/h 12% 0.00in /  0mm 1053.0 W/m2
11:55 88.5 °F /  31.4 °C 31.5 °F /  -0.3 °C 30.10in /  1019.2hPa South 0.9mph /  1.4km/h 5.0mph /  8km/h 13% 0.00in /  0mm 1062.0 W/m2
12:00 89.1 °F /  31.7 °C 33.6 °F /  0.9 °C 30.10in /  1019.2hPa East 6.0mph /  9.7km/h 8.0mph /  12.9km/h 14% 0.00in /  0mm 1067.0 W/m2
12:02 89.1 °F /  31.7 °C 29.8 °F /  -1.2 °C 30.10in /  1019.2hPa ENE 0.9mph /  1.4km/h 7.0mph /  11.3km/h 12% 0.00in /  0mm 1071.0 W/m2
12:07 89.4 °F /  31.9 °C 30.2 °F /  -1 °C 30.10in /  1019.2hPa ENE 2.0mph /  3.2km/h 8.0mph /  12.9km/h 12% 0.00in /  0mm 1072.0 W/m2
12:11 89.4 °F /  31.9 °C 30.2 °F /  -1 °C 30.10in /  1019.2hPa ESE 12.1mph /  19.5km/h 12.1mph /  19.5km/h 12% 0.00in /  0mm 1076.0 W/m2
12:16 89.2 °F /  31.8 °C 32.0 °F /  0 °C 30.10in /  1019.2hPa SE 4.0mph /  6.4km/h 8.0mph /  12.9km/h 13% 0.00in /  0mm 1076.0 W/m2
12:21 89.4 °F /  31.9 °C 30.2 °F /  -1 °C 30.10in /  1019.2hPa SSW 4.0mph /  6.4km/h 5.0mph /  8km/h 12% 0.00in /  0mm 1081.0 W/m2
12:26 89.8 °F /  32.1 °C 30.4 °F /  -0.9 °C 30.09in /  1018.8hPa East 4.9mph /  7.9km/h 5.0mph /  8km/h 12% 0.00in /  0mm 1085.0 W/m2
12:32 90.0 °F /  32.2 °C 28.4 °F /  -2 °C 30.09in /  1018.8hPa South 2.0mph /  3.2km/h 5.0mph /  8km/h 11% 0.00in /  0mm 1085.0 W/m2
12:37 90.1 °F /  32.3 °C 32.7 °F /  0.4 °C 30.09in /  1018.8hPa ESE 4.0mph /  6.4km/h 5.0mph /  8km/h 13% 0.00in /  0mm 1090.0 W/m2
12:42 90.3 °F /  32.4 °C 28.8 °F /  -1.8 °C 30.09in /  1018.8hPa Calm   4.0mph /  6.4km/h 11% 0.00in /  0mm 1088.0 W/m2
12:47 90.7 °F /  32.6 °C 31.1 °F /  -0.5 °C 30.09in /  1018.8hPa SE 4.0mph /  6.4km/h 9.0mph /  14.5km/h 12% 0.00in /  0mm 1081.0 W/m2
12:52 91.0 °F /  32.8 °C 31.5 °F /  -0.3 °C 30.09in /  1018.8hPa South 0.9mph /  1.4km/h 4.0mph /  6.4km/h 12% 0.00in /  0mm 1072.0 W/m2
12:58 91.2 °F /  32.9 °C 29.3 °F /  -1.5 °C 30.08in /  1018.5hPa Calm   5.0mph /  8km/h 11% 0.00in /  0mm 1072.0 W/m2
13:03 91.4 °F /  33 °C 31.6 °F /  -0.2 °C 30.08in /  1018.5hPa SE 2.9mph /  4.7km/h 7.0mph /  11.3km/h 12% 0.00in /  0mm 1079.0 W/m2
13:09 91.6 °F /  33.1 °C 29.7 °F /  -1.3 °C 30.08in /  1018.5hPa West 2.9mph /  4.7km/h 5.0mph /  8km/h 11% 0.00in /  0mm 1079.0 W/m2
13:14 91.8 °F /  33.2 °C 29.8 °F /  -1.2 °C 30.07in /  1018.2hPa Calm   3.0mph /  4.8km/h 11% 0.00in /  0mm 1071.0 W/m2
13:20 92.1 °F /  33.4 °C 27.7 °F /  -2.4 °C 30.07in /  1018.2hPa NNE 2.0mph /  3.2km/h 7.0mph /  11.3km/h 10% 0.00in /  0mm 1067.0 W/m2
13:25 92.8 °F /  33.8 °C 30.6 °F /  -0.8 °C 30.07in /  1018.2hPa West 2.0mph /  3.2km/h 4.0mph /  6.4km/h 11% 0.00in /  0mm 1072.0 W/m2
13:30 93.2 °F /  34 °C 33.1 °F /  0.6 °C 30.07in /  1018.2hPa NNW 2.9mph /  4.7km/h 8.0mph /  12.9km/h 12% 0.00in /  0mm 1074.0 W/m2
13:36 93.6 °F /  34.2 °C 28.8 °F /  -1.8 °C 30.06in /  1017.8hPa WSW 2.9mph /  4.7km/h 7.0mph /  11.3km/h 10% 0.00in /  0mm 1067.0 W/m2
13:39 93.2 °F /  34 °C 30.9 °F /  -0.6 °C 30.06in /  1017.8hPa NE 4.9mph /  7.9km/h 7.0mph /  11.3km/h 11% 0.00in /  0mm 1062.0 W/m2
13:44 92.7 °F /  33.7 °C 30.6 °F /  -0.8 °C 30.06in /  1017.8hPa WSW 0.9mph /  1.4km/h 9.0mph /  14.5km/h 11% 0.00in /  0mm 1056.0 W/m2
13:45 92.5 °F /  33.6 °C 30.4 °F /  -0.9 °C 30.06in /  1017.8hPa WSW 2.9mph /  4.7km/h 8.0mph /  12.9km/h 11% 0.00in /  0mm 1060.0 W/m2
13:50 92.3 °F /  33.5 °C 30.2 °F /  -1 °C 30.06in /  1017.8hPa North 2.0mph /  3.2km/h 6.0mph /  9.7km/h 11% 0.00in /  0mm 1051.0 W/m2
13:55 92.5 °F /  33.6 °C 30.4 °F /  -0.9 °C 30.06in /  1017.8hPa North 0.9mph /  1.4km/h 7.0mph /  11.3km/h 11% 0.00in /  0mm 1049.0 W/m2
14:01 92.7 °F /  33.7 °C 32.7 °F /  0.4 °C 30.06in /  1017.8hPa WNW 4.0mph /  6.4km/h 8.0mph /  12.9km/h 12% 0.00in /  0mm 1039.0 W/m2
14:06 92.1 °F /  33.4 °C 30.0 °F /  -1.1 °C 30.06in /  1017.8hPa West 0.9mph /  1.4km/h 8.0mph /  12.9km/h 11% 0.00in /  0mm 1034.0 W/m2
14:07 92.1 °F /  33.4 °C 32.2 °F /  0.1 °C 30.06in /  1017.8hPa Calm   1.0mph /  1.6km/h 12% 0.00in /  0mm 1034.0 W/m2
14:13 92.7 °F /  33.7 °C 32.7 °F /  0.4 °C 30.05in /  1017.5hPa Calm   6.0mph /  9.7km/h 12% 0.00in /  0mm 1023.0 W/m2
14:19 93.6 °F /  34.2 °C 31.1 °F /  -0.5 °C 30.05in /  1017.5hPa West 4.0mph /  6.4km/h 12.0mph /  19.3km/h 11% 0.00in /  0mm 1014.0 W/m2
14:24 93.0 °F /  33.9 °C 30.7 °F /  -0.7 °C 30.05in /  1017.5hPa WSW 2.9mph /  4.7km/h 6.0mph /  9.7km/h 11% 0.00in /  0mm 1002.0 W/m2
14:30 93.0 °F /  33.9 °C 30.7 °F /  -0.7 °C 30.05in /  1017.5hPa WSW 2.9mph /  4.7km/h 4.0mph /  6.4km/h 11% 0.00in /  0mm 991.0 W/m2
14:31 93.0 °F /  33.9 °C 30.7 °F /  -0.7 °C 30.04in /  1017.2hPa Calm   4.0mph /  6.4km/h 11% 0.00in /  0mm 993.0 W/m2
14:36 93.6 °F /  34.2 °C 33.3 °F /  0.7 °C 30.05in /  1017.5hPa WNW 0.9mph /  1.4km/h 4.0mph /  6.4km/h 12% 0.00in /  0mm 983.0 W/m2
14:41 93.4 °F /  34.1 °C 31.1 °F /  -0.5 °C 30.04in /  1017.2hPa West 0.9mph /  1.4km/h 5.0mph /  8km/h 11% 0.00in /  0mm 972.0 W/m2
14:47 93.6 °F /  34.2 °C 31.1 °F /  -0.5 °C 30.04in /  1017.2hPa Calm   7.0mph /  11.3km/h 11% 0.00in /  0mm 960.0 W/m2
14:52 93.6 °F /  34.2 °C 33.3 °F /  0.7 °C 30.04in /  1017.2hPa West 2.0mph /  3.2km/h 7.0mph /  11.3km/h 12% 0.00in /  0mm 951.0 W/m2
14:58 93.0 °F /  33.9 °C 30.7 °F /  -0.7 °C 30.04in /  1017.2hPa WSW 0.9mph /  1.4km/h 12.0mph /  19.3km/h 11% 0.00in /  0mm 939.0 W/m2
15:04 93.0 °F /  33.9 °C 32.9 °F /  0.5 °C 30.04in /  1017.2hPa SSW 2.0mph /  3.2km/h 5.0mph /  8km/h 12% 0.00in /  0mm 925.0 W/m2
15:09 93.6 °F /  34.2 °C 31.1 °F /  -0.5 °C 30.03in /  1016.8hPa SE 0.9mph /  1.4km/h 4.0mph /  6.4km/h 11% 0.00in /  0mm 902.0 W/m2
15:14 93.4 °F /  34.1 °C 31.1 °F /  -0.5 °C 30.04in /  1017.2hPa West 6.9mph /  11.1km/h 11.0mph /  17.7km/h 11% 0.00in /  0mm 898.0 W/m2
15:15 93.4 °F /  34.1 °C 31.1 °F /  -0.5 °C 30.04in /  1017.2hPa SW 6.0mph /  9.7km/h 13.0mph /  20.9km/h 11% 0.00in /  0mm 898.0 W/m2
15:21 93.2 °F /  34 °C 30.9 °F /  -0.6 °C 30.03in /  1016.8hPa Calm   4.0mph /  6.4km/h 11% 0.00in /  0mm 882.0 W/m2
15:25 93.7 °F /  34.3 °C 28.9 °F /  -1.7 °C 30.03in /  1016.8hPa SW 4.0mph /  6.4km/h 7.0mph /  11.3km/h 10% 0.00in /  0mm 872.0 W/m2
15:26 93.9 °F /  34.4 °C 29.1 °F /  -1.6 °C 30.03in /  1016.8hPa West 8.1mph /  13km/h 9.0mph /  14.5km/h 10% 0.00in /  0mm 868.0 W/m2
15:31 93.9 °F /  34.4 °C 29.1 °F /  -1.6 °C 30.03in /  1016.8hPa North 4.0mph /  6.4km/h 7.0mph /  11.3km/h 10% 0.00in /  0mm 856.0 W/m2
15:36 94.5 °F /  34.7 °C 31.8 °F /  -0.1 °C 30.03in /  1016.8hPa WNW 2.0mph /  3.2km/h 5.0mph /  8km/h 11% 0.00in /  0mm 838.0 W/m2
15:42 94.6 °F /  34.8 °C 29.7 °F /  -1.3 °C 30.03in /  1016.8hPa NNW 0.9mph /  1.4km/h 5.0mph /  8km/h 10% 0.00in /  0mm 826.0 W/m2
15:45 94.8 °F /  34.9 °C 29.8 °F /  -1.2 °C 30.03in /  1016.8hPa West 4.9mph /  7.9km/h 10.0mph /  16.1km/h 10% 0.00in /  0mm 816.0 W/m2
15:50 94.5 °F /  34.7 °C 29.5 °F /  -1.4 °C 30.03in /  1016.8hPa SSW 4.9mph /  7.9km/h 11.0mph /  17.7km/h 10% 0.00in /  0mm 800.0 W/m2
15:56 93.7 °F /  34.3 °C 28.9 °F /  -1.7 °C 30.03in /  1016.8hPa West 8.1mph /  13km/h 11.0mph /  17.7km/h 10% 0.00in /  0mm 782.0 W/m2
16:01 93.0 °F /  33.9 °C 28.4 °F /  -2 °C 30.03in /  1016.8hPa Calm   8.0mph /  12.9km/h 10% 0.00in /  0mm 766.0 W/m2
16:04 93.0 °F /  33.9 °C 28.4 °F /  -2 °C 30.02in /  1016.5hPa WNW 0.9mph /  1.4km/h 5.0mph /  8km/h 10% 0.00in /  0mm 754.0 W/m2
16:09 93.6 °F /  34.2 °C 28.8 °F /  -1.8 °C 30.02in /  1016.5hPa North 4.0mph /  6.4km/h 7.0mph /  11.3km/h 10% 0.00in /  0mm 744.0 W/m2
16:11 93.6 °F /  34.2 °C 28.8 °F /  -1.8 °C 30.02in /  1016.5hPa West 0.9mph /  1.4km/h 10.0mph /  16.1km/h 10% 0.00in /  0mm 737.0 W/m2
16:16 93.7 °F /  34.3 °C 26.4 °F /  -3.1 °C 30.02in /  1016.5hPa WSW 2.9mph /  4.7km/h 6.0mph /  9.7km/h 9% 0.00in /  0mm 717.0 W/m2
16:18 93.7 °F /  34.3 °C 26.4 °F /  -3.1 °C 30.02in /  1016.5hPa West 4.9mph /  7.9km/h 8.0mph /  12.9km/h 9% 0.00in /  0mm 712.0 W/m2
16:24 93.7 °F /  34.3 °C 26.4 °F /  -3.1 °C 30.02in /  1016.5hPa WSW 2.9mph /  4.7km/h 3.0mph /  4.8km/h 9% 0.00in /  0mm 689.0 W/m2
16:30 93.7 °F /  34.3 °C 26.4 °F /  -3.1 °C 30.02in /  1016.5hPa West 0.9mph /  1.4km/h 5.0mph /  8km/h 9% 0.00in /  0mm 675.0 W/m2
16:35 93.6 °F /  34.2 °C 26.2 °F /  -3.2 °C 30.02in /  1016.5hPa NW 0.9mph /  1.4km/h 7.0mph /  11.3km/h 9% 0.00in /  0mm 654.0 W/m2
16:36 93.6 °F /  34.2 °C 28.8 °F /  -1.8 °C 30.02in /  1016.5hPa South 0.9mph /  1.4km/h 5.0mph /  8km/h 10% 0.00in /  0mm 652.0 W/m2
16:41 93.4 °F /  34.1 °C 23.4 °F /  -4.8 °C 30.01in /  1016.1hPa SW 2.9mph /  4.7km/h 12.0mph /  19.3km/h 8% 0.00in /  0mm 633.0 W/m2
16:46 92.7 °F /  33.7 °C 25.5 °F /  -3.6 °C 30.01in /  1016.1hPa West 6.9mph /  11.1km/h 11.0mph /  17.7km/h 9% 0.00in /  0mm 617.0 W/m2
16:51 92.5 °F /  33.6 °C 25.5 °F /  -3.6 °C 30.01in /  1016.1hPa WSW 4.9mph /  7.9km/h 9.0mph /  14.5km/h 9% 0.00in /  0mm 599.0 W/m2
16:56 92.5 °F /  33.6 °C 22.6 °F /  -5.2 °C 30.01in /  1016.1hPa WSW 4.0mph /  6.4km/h 11.0mph /  17.7km/h 8% 0.00in /  0mm 578.0 W/m2
16:59 92.5 °F /  33.6 °C 22.6 °F /  -5.2 °C 30.01in /  1016.1hPa WNW 2.0mph /  3.2km/h 14.0mph /  22.5km/h 8% 0.00in /  0mm 570.0 W/m2
17:04 92.1 °F /  33.4 °C 25.2 °F /  -3.8 °C 30.01in /  1016.1hPa West 2.9mph /  4.7km/h 10.0mph /  16.1km/h 9% 0.00in /  0mm 552.0 W/m2
17:06 91.9 °F /  33.3 °C 22.3 °F /  -5.4 °C 30.01in /  1016.1hPa WSW 10.1mph /  16.3km/h 11.0mph /  17.7km/h 8% 0.00in /  0mm 543.0 W/m2
17:11 91.9 °F /  33.3 °C 22.3 °F /  -5.4 °C 30.01in /  1016.1hPa SW 4.9mph /  7.9km/h 9.0mph /  14.5km/h 8% 0.00in /  0mm 526.0 W/m2
17:16 91.6 °F /  33.1 °C 21.9 °F /  -5.6 °C 30.02in /  1016.5hPa WSW 4.0mph /  6.4km/h 11.0mph /  17.7km/h 8% 0.00in /  0mm 508.0 W/m2
17:21 91.0 °F /  32.8 °C 21.6 °F /  -5.8 °C 30.02in /  1016.5hPa WSW 4.9mph /  7.9km/h 13.0mph /  20.9km/h 8% 0.00in /  0mm 492.0 W/m2
17:26 90.9 °F /  32.7 °C 21.4 °F /  -5.9 °C 30.01in /  1016.1hPa West 6.0mph /  9.7km/h 8.0mph /  12.9km/h 8% 0.00in /  0mm 473.0 W/m2
17:31 90.9 °F /  32.7 °C 21.4 °F /  -5.9 °C 30.02in /  1016.5hPa West 8.9mph /  14.3km/h 9.0mph /  14.5km/h 8% 0.00in /  0mm 452.0 W/m2
17:36 91.0 °F /  32.8 °C 21.6 °F /  -5.8 °C 30.02in /  1016.5hPa West 2.9mph /  4.7km/h 13.0mph /  20.9km/h 8% 0.00in /  0mm 429.0 W/m2
17:41 90.9 °F /  32.7 °C 21.4 °F /  -5.9 °C 30.02in /  1016.5hPa WSW 6.9mph /  11.1km/h 15.0mph /  24.1km/h 8% 0.00in /  0mm 408.0 W/m2
17:46 90.7 °F /  32.6 °C 21.4 °F /  -5.9 °C 30.02in /  1016.5hPa NW 6.0mph /  9.7km/h 9.0mph /  14.5km/h 8% 0.00in /  0mm 388.0 W/m2
17:52 90.7 °F /  32.6 °C 24.1 °F /  -4.4 °C 30.02in /  1016.5hPa WSW 4.9mph /  7.9km/h 13.0mph /  20.9km/h 9% 0.00in /  0mm 366.0 W/m2
17:58 90.3 °F /  32.4 °C 23.9 °F /  -4.5 °C 30.02in /  1016.5hPa WSW 8.1mph /  13km/h 8.1mph /  13km/h 9% 0.00in /  0mm 343.0 W/m2
18:02 90.0 °F /  32.2 °C 20.8 °F /  -6.2 °C 30.02in /  1016.5hPa WSW 2.9mph /  4.7km/h 12.0mph /  19.3km/h 8% 0.00in /  0mm 330.0 W/m2
18:07 89.4 °F /  31.9 °C 23.2 °F /  -4.9 °C 30.02in /  1016.5hPa West 2.9mph /  4.7km/h 7.0mph /  11.3km/h 9% 0.00in /  0mm 308.0 W/m2
18:12 89.2 °F /  31.8 °C 20.3 °F /  -6.5 °C 30.02in /  1016.5hPa WNW 6.9mph /  11.1km/h 9.0mph /  14.5km/h 8% 0.00in /  0mm 288.0 W/m2
18:17 88.7 °F /  31.5 °C 19.9 °F /  -6.7 °C 30.02in /  1016.5hPa West 8.1mph /  13km/h 15.0mph /  24.1km/h 8% 0.00in /  0mm 267.0 W/m2
18:23 88.2 °F /  31.2 °C 22.3 °F /  -5.4 °C 30.03in /  1016.8hPa SW 8.9mph /  14.3km/h 11.0mph /  17.7km/h 9% 0.00in /  0mm 239.0 W/m2
18:29 87.8 °F /  31 °C 21.9 °F /  -5.6 °C 30.03in /  1016.8hPa SW 4.0mph /  6.4km/h 13.0mph /  20.9km/h 9% 0.00in /  0mm 214.0 W/m2
18:31 87.6 °F /  30.9 °C 21.7 °F /  -5.7 °C 30.03in /  1016.8hPa WNW 4.0mph /  6.4km/h 12.0mph /  19.3km/h 9% 0.00in /  0mm 209.0 W/m2
18:37 86.9 °F /  30.5 °C 21.2 °F /  -6 °C 30.03in /  1016.8hPa West 6.0mph /  9.7km/h 10.0mph /  16.1km/h 9% 0.00in /  0mm 141.0 W/m2
18:43 86.2 °F /  30.1 °C 23.2 °F /  -4.9 °C 30.03in /  1016.8hPa West 6.0mph /  9.7km/h 9.0mph /  14.5km/h 10% 0.00in /  0mm 76.0 W/m2
18:48 85.6 °F /  29.8 °C 22.8 °F /  -5.1 °C 30.03in /  1016.8hPa WSW 4.9mph /  7.9km/h 7.0mph /  11.3km/h 10% 0.00in /  0mm 32.0 W/m2
18:53 85.5 °F /  29.7 °C 25.0 °F /  -3.9 °C 30.04in /  1017.2hPa WSW 4.0mph /  6.4km/h 11.0mph /  17.7km/h 11% 0.00in /  0mm 28.0 W/m2
18:55 85.3 °F /  29.6 °C 24.8 °F /  -4 °C 30.04in /  1017.2hPa West 4.9mph /  7.9km/h 6.0mph /  9.7km/h 11% 0.00in /  0mm 26.0 W/m2
19:00 84.7 °F /  29.3 °C 24.4 °F /  -4.2 °C 30.04in /  1017.2hPa WSW 8.1mph /  13km/h 10.0mph /  16.1km/h 11% 0.00in /  0mm 23.0 W/m2
19:05 84.0 °F /  28.9 °C 25.9 °F /  -3.4 °C 30.04in /  1017.2hPa WSW 4.9mph /  7.9km/h 9.0mph /  14.5km/h 12% 0.00in /  0mm 21.0 W/m2
19:10 83.5 °F /  28.6 °C 25.5 °F /  -3.6 °C 30.04in /  1017.2hPa SW 8.1mph /  13km/h 10.0mph /  16.1km/h 12% 0.00in /  0mm 19.0 W/m2
19:15 82.9 °F /  28.3 °C 27.0 °F /  -2.8 °C 30.04in /  1017.2hPa West 6.0mph /  9.7km/h 10.0mph /  16.1km/h 13% 0.00in /  0mm 16.0 W/m2
19:20 82.2 °F /  27.9 °C 26.4 °F /  -3.1 °C 30.05in /  1017.5hPa WSW 4.0mph /  6.4km/h 9.0mph /  14.5km/h 13% 0.00in /  0mm 12.0 W/m2
19:25 81.9 °F /  27.7 °C 26.2 °F /  -3.2 °C 30.05in /  1017.5hPa Calm   7.0mph /  11.3km/h 13% 0.00in /  0mm 11.0 W/m2
19:30 81.5 °F /  27.5 °C 27.7 °F /  -2.4 °C 30.05in /  1017.5hPa SSW 4.9mph /  7.9km/h 11.0mph /  17.7km/h 14% 0.00in /  0mm 7.0 W/m2
19:36 81.0 °F /  27.2 °C 27.3 °F /  -2.6 °C 30.05in /  1017.5hPa WSW 2.9mph /  4.7km/h 8.0mph /  12.9km/h 14% 0.00in /  0mm 5.0 W/m2
19:41 80.6 °F /  27 °C 28.8 °F /  -1.8 °C 30.06in /  1017.8hPa WSW 2.9mph /  4.7km/h 10.0mph /  16.1km/h 15% 0.00in /  0mm 0.0 W/m2
19:43 80.4 °F /  26.9 °C 28.6 °F /  -1.9 °C 30.06in /  1017.8hPa SW 2.0mph /  3.2km/h 3.0mph /  4.8km/h 15% 0.00in /  0mm 0.0 W/m2
19:48 80.2 °F /  26.8 °C 28.4 °F /  -2 °C 30.06in /  1017.8hPa West 0.9mph /  1.4km/h 4.0mph /  6.4km/h 15% 0.00in /  0mm 0.0 W/m2
19:53 79.9 °F /  26.6 °C 29.7 °F /  -1.3 °C 30.06in /  1017.8hPa WSW 4.0mph /  6.4km/h 8.0mph /  12.9km/h 16% 0.00in /  0mm 0.0 W/m2
19:58 79.3 °F /  26.3 °C 29.3 °F /  -1.5 °C 30.07in /  1018.2hPa WNW 4.0mph /  6.4km/h 5.0mph /  8km/h 16% 0.00in /  0mm 0.0 W/m2
20:03 79.2 °F /  26.2 °C 30.6 °F /  -0.8 °C 30.07in /  1018.2hPa SSW 2.0mph /  3.2km/h 6.0mph /  9.7km/h 17% 0.00in /  0mm 0.0 W/m2
20:08 78.6 °F /  25.9 °C 31.6 °F /  -0.2 °C 30.07in /  1018.2hPa Calm   4.0mph /  6.4km/h 18% 0.00in /  0mm 0.0 W/m2
20:13 78.3 °F /  25.7 °C 31.3 °F /  -0.4 °C 30.07in /  1018.2hPa SSW 2.0mph /  3.2km/h 11.0mph /  17.7km/h 18% 0.00in /  0mm 0.0 W/m2
20:19 77.7 °F /  25.4 °C 32.2 °F /  0.1 °C 30.08in /  1018.5hPa Calm   6.0mph /  9.7km/h 19% 0.00in /  0mm 0.0 W/m2
20:20 77.7 °F /  25.4 °C 32.2 °F /  0.1 °C 30.08in /  1018.5hPa SW 2.0mph /  3.2km/h 5.0mph /  8km/h 19% 0.00in /  0mm 0.0 W/m2
20:25 77.4 °F /  25.2 °C 33.1 °F /  0.6 °C 30.08in /  1018.5hPa SW 2.0mph /  3.2km/h 5.0mph /  8km/h 20% 0.00in /  0mm 0.0 W/m2
20:30 77.2 °F /  25.1 °C 34.2 °F /  1.2 °C 30.08in /  1018.5hPa SW 4.9mph /  7.9km/h 9.0mph /  14.5km/h 21% 0.00in /  0mm 0.0 W/m2
20:35 76.6 °F /  24.8 °C 33.8 °F /  1 °C 30.08in /  1018.5hPa WSW 0.9mph /  1.4km/h 3.0mph /  4.8km/h 21% 0.00in /  0mm 0.0 W/m2
20:40 76.5 °F /  24.7 °C 34.9 °F /  1.6 °C 30.09in /  1018.8hPa SSW 0.9mph /  1.4km/h 4.0mph /  6.4km/h 22% 0.00in /  0mm 0.0 W/m2
20:44 76.3 °F /  24.6 °C 34.7 °F /  1.5 °C 30.09in /  1018.8hPa WSW 2.9mph /  4.7km/h 7.0mph /  11.3km/h 22% 0.00in /  0mm 0.0 W/m2
20:50 75.7 °F /  24.3 °C 35.2 °F /  1.8 °C 30.09in /  1018.8hPa WSW 0.9mph /  1.4km/h 2.0mph /  3.2km/h 23% 0.00in /  0mm 0.0 W/m2
20:55 75.6 °F /  24.2 °C 35.2 °F /  1.8 °C 30.09in /  1018.8hPa WNW 2.9mph /  4.7km/h 6.0mph /  9.7km/h 23% 0.00in /  0mm 0.0 W/m2
21:00 75.2 °F /  24 °C 36.0 °F /  2.2 °C 30.09in /  1018.8hPa West 6.9mph /  11.1km/h 7.0mph /  11.3km/h 24% 0.00in /  0mm 0.0 W/m2
21:05 74.8 °F /  23.8 °C 35.6 °F /  2 °C 30.09in /  1018.8hPa SSW 6.0mph /  9.7km/h 10.0mph /  16.1km/h 24% 0.00in /  0mm 0.0 W/m2
21:08 74.7 °F /  23.7 °C 36.5 °F /  2.5 °C 30.10in /  1019.2hPa WSW 2.0mph /  3.2km/h 6.0mph /  9.7km/h 25% 0.00in /  0mm 0.0 W/m2
21:13 74.3 °F /  23.5 °C 36.1 °F /  2.3 °C 30.10in /  1019.2hPa WSW 4.0mph /  6.4km/h 5.0mph /  8km/h 25% 0.00in /  0mm 0.0 W/m2
21:18 73.9 °F /  23.3 °C 36.0 °F /  2.2 °C 30.10in /  1019.2hPa West 6.0mph /  9.7km/h 8.0mph /  12.9km/h 25% 0.00in /  0mm 0.0 W/m2
21:23 73.8 °F /  23.2 °C 35.8 °F /  2.1 °C 30.10in /  1019.2hPa WSW 4.0mph /  6.4km/h 9.0mph /  14.5km/h 25% 0.00in /  0mm 0.0 W/m2
21:28 73.6 °F /  23.1 °C 35.6 °F /  2 °C 30.10in /  1019.2hPa West 6.0mph /  9.7km/h 12.0mph /  19.3km/h 25% 0.00in /  0mm 0.0 W/m2
21:33 73.2 °F /  22.9 °C 36.3 °F /  2.4 °C 30.10in /  1019.2hPa West 6.9mph /  11.1km/h 7.0mph /  11.3km/h 26% 0.00in /  0mm 0.0 W/m2
21:39 73.0 °F /  22.8 °C 35.1 °F /  1.7 °C 30.11in /  1019.5hPa WSW 2.9mph /  4.7km/h 10.0mph /  16.1km/h 25% 0.00in /  0mm 0.0 W/m2
21:41 73.0 °F /  22.8 °C 35.1 °F /  1.7 °C 30.10in /  1019.2hPa SW 4.9mph /  7.9km/h 9.0mph /  14.5km/h 25% 0.00in /  0mm 0.0 W/m2
21:46 72.9 °F /  22.7 °C 36.0 °F /  2.2 °C 30.11in /  1019.5hPa WSW 8.9mph /  14.3km/h 11.0mph /  17.7km/h 26% 0.00in /  0mm 0.0 W/m2
21:51 72.7 °F /  22.6 °C 33.8 °F /  1 °C 30.11in /  1019.5hPa West 6.0mph /  9.7km/h 13.0mph /  20.9km/h 24% 0.00in /  0mm 0.0 W/m2
21:56 72.5 °F /  22.5 °C 36.7 °F /  2.6 °C 30.11in /  1019.5hPa SW 4.9mph /  7.9km/h 11.0mph /  17.7km/h 27% 0.00in /  0mm 0.0 W/m2
21:57 72.5 °F /  22.5 °C 36.7 °F /  2.6 °C 30.11in /  1019.5hPa WSW 2.0mph /  3.2km/h 14.0mph /  22.5km/h 27% 0.00in /  0mm 0.0 W/m2
22:02 72.1 °F /  22.3 °C 35.4 °F /  1.9 °C 30.11in /  1019.5hPa West 4.9mph /  7.9km/h 9.0mph /  14.5km/h 26% 0.00in /  0mm 0.0 W/m2
22:05 72.1 °F /  22.3 °C 33.4 °F /  0.8 °C 30.11in /  1019.5hPa WSW 0.9mph /  1.4km/h 7.0mph /  11.3km/h 24% 0.00in /  0mm 0.0 W/m2
22:09 72.1 °F /  22.3 °C 31.1 °F /  -0.5 °C 30.11in /  1019.5hPa West 0.9mph /  1.4km/h 10.0mph /  16.1km/h 22% 0.00in /  0mm 0.0 W/m2
22:14 72.1 °F /  22.3 °C 36.3 °F /  2.4 °C 30.11in /  1019.5hPa SW 2.0mph /  3.2km/h 3.0mph /  4.8km/h 27% 0.00in /  0mm 0.0 W/m2
22:21 72.0 °F /  22.2 °C 32.2 °F /  0.1 °C 30.12in /  1019.9hPa WSW 0.9mph /  1.4km/h 5.0mph /  8km/h 23% 0.00in /  0mm 0.0 W/m2
22:27 71.8 °F /  22.1 °C 35.1 °F /  1.7 °C 30.12in /  1019.9hPa South 2.9mph /  4.7km/h 4.0mph /  6.4km/h 26% 0.00in /  0mm 0.0 W/m2
22:32 71.6 °F /  22 °C 34.0 °F /  1.1 °C 30.12in /  1019.9hPa Calm   2.0mph /  3.2km/h 25% 0.00in /  0mm 0.0 W/m2
22:33 71.6 °F /  22 °C 32.9 °F /  0.5 °C 30.12in /  1019.9hPa Calm   2.0mph /  3.2km/h 24% 0.00in /  0mm 0.0 W/m2
22:38 71.4 °F /  21.9 °C 33.8 °F /  1 °C 30.12in /  1019.9hPa Calm   2.0mph /  3.2km/h 25% 0.00in /  0mm 0.0 W/m2
22:43 71.2 °F /  21.8 °C 32.5 °F /  0.3 °C 30.12in /  1019.9hPa Calm     24% 0.00in /  0mm 0.0 W/m2
22:48 71.1 °F /  21.7 °C 32.4 °F /  0.2 °C 30.12in /  1019.9hPa Calm     24% 0.00in /  0mm 0.0 W/m2
22:53 70.9 °F /  21.6 °C 32.4 °F /  0.2 °C 30.12in /  1019.9hPa Calm     24% 0.00in /  0mm 0.0 W/m2
22:58 70.7 °F /  21.5 °C 33.1 °F /  0.6 °C 30.12in /  1019.9hPa SE 2.0mph /  3.2km/h 2.0mph /  3.2km/h 25% 0.00in /  0mm 0.0 W/m2
23:00 70.5 °F /  21.4 °C 34.0 °F /  1.1 °C 30.12in /  1019.9hPa Calm   3.0mph /  4.8km/h 26% 0.00in /  0mm 0.0 W/m2
23:02 70.3 °F /  21.3 °C 34.7 °F /  1.5 °C 30.12in /  1019.9hPa North 0.9mph /  1.4km/h 1.0mph /  1.6km/h 27% 0.00in /  0mm 0.0 W/m2
23:08 70.2 °F /  21.2 °C 36.5 °F /  2.5 °C 30.12in /  1019.9hPa NNE 0.9mph /  1.4km/h 3.0mph /  4.8km/h 29% 0.00in /  0mm 0.0 W/m2
23:14 69.8 °F /  21 °C 37.0 °F /  2.8 °C 30.13in /  1020.2hPa Calm   1.0mph /  1.6km/h 30% 0.00in /  0mm 0.0 W/m2
23:19 69.4 °F /  20.8 °C 37.4 °F /  3 °C 30.13in /  1020.2hPa WSW 2.0mph /  3.2km/h 2.0mph /  3.2km/h 31% 0.00in /  0mm 0.0 W/m2
23:24 69.1 °F /  20.6 °C 37.9 °F /  3.3 °C 30.12in /  1019.9hPa Calm     32% 0.00in /  0mm 0.0 W/m2
23:29 68.7 °F /  20.4 °C 37.6 °F /  3.1 °C 30.12in /  1019.9hPa WNW 2.9mph /  4.7km/h 3.0mph /  4.8km/h 32% 0.00in /  0mm 0.0 W/m2
23:34 68.4 °F /  20.2 °C 37.4 °F /  3 °C 30.12in /  1019.9hPa Calm   3.0mph /  4.8km/h 32% 0.00in /  0mm 0.0 W/m2
23:39 68.2 °F /  20.1 °C 37.9 °F /  3.3 °C 30.12in /  1019.9hPa Calm     33% 0.00in /  0mm 0.0 W/m2
23:44 67.8 °F /  19.9 °C 37.6 °F /  3.1 °C 30.12in /  1019.9hPa WSW 2.0mph /  3.2km/h 4.0mph /  6.4km/h 33% 0.00in /  0mm 0.0 W/m2
23:49 67.6 °F /  19.8 °C 37.6 °F /  3.1 °C 30.12in /  1019.9hPa Calm   2.0mph /  3.2km/h 33% 0.00in /  0mm 0.0 W/m2
23:54 67.5 °F /  19.7 °C 38.1 °F /  3.4 °C 30.12in /  1019.9hPa WNW 2.9mph /  4.7km/h 3.0mph /  4.8km/h 34% 0.00in /  0mm 0.0 W/m2
Olympia, Windhoek, Namibia
Compliments of Weather Underground - 3.5 mb